createdAt,value
2018-06-09T00:02:22.363Z,15.30
2018-06-09T00:04:51.026Z,15.20
2018-06-09T00:07:19.732Z,15.20
2018-06-09T00:09:48.388Z,15.10
2018-06-09T00:12:17.003Z,15.00
2018-06-09T00:14:45.608Z,15.10
2018-06-09T00:17:14.480Z,15.20
2018-06-09T00:19:43.403Z,15.20
2018-06-09T00:22:12.280Z,15.10
2018-06-09T00:24:41.168Z,15.10
2018-06-09T00:27:10.111Z,15.10
2018-06-09T00:32:07.638Z,15.20
2018-06-09T00:34:36.535Z,15.30
2018-06-09T00:37:05.151Z,15.40
2018-06-09T00:39:33.738Z,15.40
2018-06-09T00:42:02.352Z,15.60
2018-06-09T00:44:30.990Z,15.60
2018-06-09T00:46:59.895Z,15.60
2018-06-09T00:51:57.403Z,15.40
2018-06-09T00:54:26.385Z,15.20
2018-06-09T00:56:55.223Z,15.10
2018-06-09T00:59:24.052Z,15.10
2018-06-09T01:01:52.915Z,15.00
2018-06-09T01:04:21.799Z,15.00
2018-06-09T01:06:50.778Z,15.00
2018-06-09T01:09:19.378Z,15.10
2018-06-09T01:11:48.019Z,15.10
2018-06-09T01:14:16.703Z,15.10
2018-06-09T01:16:45.563Z,15.20
2018-06-09T01:21:43.699Z,15.60
2018-06-09T01:24:12.643Z,15.70
2018-06-09T01:29:10.248Z,15.60
2018-06-09T01:31:39.115Z,15.60
2018-06-09T01:34:07.999Z,15.50
2018-06-09T01:39:08.430Z,15.60
2018-06-09T01:41:37.842Z,15.50
2018-06-09T01:44:06.764Z,15.40
2018-06-09T01:46:35.667Z,15.40
2018-06-09T01:49:05.169Z,15.30
2018-06-09T01:51:33.769Z,15.30
2018-06-09T01:54:02.399Z,15.30
2018-06-09T01:56:31.043Z,15.30
2018-06-09T01:58:59.681Z,15.30
2018-06-09T02:01:28.394Z,15.30
2018-06-09T02:03:57.010Z,15.30
2018-06-09T02:06:25.641Z,15.30
2018-06-09T02:08:54.293Z,15.40
2018-06-09T02:13:51.816Z,15.70
2018-06-09T02:16:20.733Z,15.70
2018-06-09T02:18:49.659Z,15.80
2018-06-09T02:21:18.562Z,15.90
2018-06-09T02:23:47.431Z,16.00
2018-06-09T02:26:16.359Z,16.10
2018-06-09T02:28:45.204Z,16.10
2018-06-09T02:33:42.302Z,16.10
2018-06-09T02:36:10.952Z,16.20
2018-06-09T02:41:08.274Z,16.20
2018-06-09T02:43:37.199Z,16.20
2018-06-09T02:46:06.146Z,16.20
2018-06-09T02:48:35.067Z,16.10
2018-06-09T02:51:05.247Z,16.10
2018-06-09T02:53:33.868Z,16.30
2018-06-09T02:56:02.510Z,16.60
2018-06-09T02:58:31.115Z,16.60
2018-06-09T03:00:59.902Z,16.50
2018-06-09T03:03:28.808Z,16.50
2018-06-09T03:05:57.748Z,16.70
2018-06-09T03:08:26.685Z,16.70
2018-06-09T03:10:55.636Z,16.60
2018-06-09T03:15:53.252Z,16.30
2018-06-09T03:18:22.108Z,16.20
2018-06-09T03:20:51.012Z,16.10
2018-06-09T03:23:19.895Z,15.90
2018-06-09T03:25:48.749Z,15.80
2018-06-09T03:28:17.604Z,15.80
2018-06-09T03:30:46.384Z,15.80
2018-06-09T03:33:14.987Z,15.70
2018-06-09T03:35:43.595Z,15.60
2018-06-09T03:38:12.247Z,15.70
2018-06-09T03:40:40.828Z,15.60
2018-06-09T03:43:09.462Z,15.50
2018-06-09T03:45:38.077Z,15.50
2018-06-09T03:48:06.662Z,15.40
2018-06-09T03:50:35.346Z,15.60
2018-06-09T03:53:05.230Z,15.60
2018-06-09T03:55:33.847Z,15.60
2018-06-09T03:58:02.810Z,15.60
2018-06-09T04:00:31.448Z,15.60
2018-06-09T04:03:00.343Z,15.60
2018-06-09T04:05:29.235Z,15.70
2018-06-09T04:07:58.120Z,15.60
2018-06-09T04:10:27.011Z,15.60
2018-06-09T04:12:55.869Z,15.60
2018-06-09T04:15:24.625Z,15.70
2018-06-09T04:17:53.240Z,15.70
2018-06-09T04:20:21.875Z,15.60
2018-06-09T04:22:50.483Z,15.60
2018-06-09T04:25:19.387Z,15.70
2018-06-09T04:27:48.298Z,15.90
2018-06-09T04:30:17.219Z,15.90
2018-06-09T04:32:46.115Z,16.00
2018-06-09T04:35:15.014Z,16.00
2018-06-09T04:37:43.970Z,16.00
2018-06-09T04:40:12.911Z,16.10
2018-06-09T04:42:41.923Z,16.10
2018-06-09T04:45:10.902Z,16.20
2018-06-09T04:47:39.866Z,16.20
2018-06-09T04:50:08.958Z,16.10
2018-06-09T04:52:37.951Z,16.00
2018-06-09T04:55:06.643Z,15.90
2018-06-09T04:57:35.275Z,15.90
2018-06-09T05:00:04.023Z,15.90
2018-06-09T05:02:32.776Z,15.90
2018-06-09T05:05:01.459Z,15.90
2018-06-09T05:07:30.367Z,16.00
2018-06-09T05:09:59.303Z,15.90
2018-06-09T05:12:28.190Z,15.90
2018-06-09T05:14:57.203Z,15.90
2018-06-09T05:17:26.120Z,15.90
2018-06-09T05:19:55.031Z,16.00
2018-06-09T05:22:23.926Z,16.10
2018-06-09T05:24:52.783Z,16.40
2018-06-09T05:27:21.703Z,16.80
2018-06-09T05:29:50.611Z,17.00
2018-06-09T05:32:19.523Z,17.20
2018-06-09T05:34:48.296Z,17.70
2018-06-09T05:37:16.959Z,17.80
2018-06-09T05:39:45.623Z,17.60
2018-06-09T05:42:14.253Z,17.50
2018-06-09T05:44:42.864Z,17.80
2018-06-09T05:47:11.513Z,18.10
2018-06-09T05:49:40.139Z,18.10
2018-06-09T05:52:08.756Z,17.90
2018-06-09T05:54:38.369Z,17.50
2018-06-09T05:57:07.357Z,17.30
2018-06-09T05:59:36.093Z,17.20
2018-06-09T06:02:04.802Z,17.10
2018-06-09T06:04:33.462Z,17.20
2018-06-09T06:07:03.123Z,17.30
2018-06-09T06:09:32.443Z,17.50
2018-06-09T06:12:01.284Z,17.60
2018-06-09T06:14:30.140Z,17.80
2018-06-09T06:17:02.735Z,18.20
2018-06-09T06:19:32.456Z,18.40
2018-06-09T06:22:01.063Z,18.70
2018-06-09T06:24:29.776Z,19.20
2018-06-09T06:29:26.784Z,19.80
2018-06-09T06:31:55.439Z,19.80
2018-06-09T06:34:24.009Z,19.70
2018-06-09T06:36:52.564Z,19.80
2018-06-09T06:39:21.243Z,20.00
2018-06-09T06:41:49.843Z,20.10
2018-06-09T06:44:18.431Z,20.30
2018-06-09T06:46:46.983Z,20.60
2018-06-09T06:49:15.709Z,20.90
2018-06-09T06:51:44.529Z,21.50
2018-06-09T06:54:13.491Z,21.60
2018-06-09T06:56:43.159Z,21.60
2018-06-09T06:59:11.923Z,21.60
2018-06-09T07:01:40.776Z,21.90
2018-06-09T07:04:09.638Z,21.90
2018-06-09T07:06:38.476Z,21.50
2018-06-09T07:09:08.231Z,21.70
2018-06-09T07:11:37.016Z,21.70
2018-06-09T07:14:05.565Z,21.80
2018-06-09T07:16:34.103Z,22.20
2018-06-09T07:19:02.696Z,22.70
2018-06-09T07:21:31.238Z,23.00
2018-06-09T07:23:59.771Z,23.50
2018-06-09T07:26:28.316Z,23.70
2018-06-09T07:28:56.978Z,23.80
2018-06-09T07:31:25.572Z,23.30
2018-06-09T07:33:54.120Z,23.20
2018-06-09T07:36:22.704Z,23.50
2018-06-09T07:38:51.264Z,23.50
2018-06-09T07:41:20.077Z,23.20
2018-06-09T07:43:48.914Z,23.10
2018-06-09T07:46:17.816Z,23.60
2018-06-09T07:51:15.310Z,24.20
2018-06-09T07:53:44.244Z,24.50
2018-06-09T07:56:13.171Z,24.40
2018-06-09T07:58:41.959Z,24.10
2018-06-09T08:01:10.569Z,24.60
2018-06-09T08:03:39.286Z,25.00
2018-06-09T08:06:08.081Z,25.50
2018-06-09T08:08:36.761Z,25.70
2018-06-09T08:11:05.521Z,25.30
2018-06-09T08:13:34.118Z,25.10
2018-06-09T08:16:02.874Z,25.10
2018-06-09T08:18:31.643Z,25.10
2018-06-09T08:21:00.583Z,25.80
2018-06-09T08:23:29.523Z,26.30
2018-06-09T08:25:58.496Z,26.00
2018-06-09T08:28:27.238Z,25.60
2018-06-09T08:30:55.851Z,25.60
2018-06-09T08:33:24.489Z,25.80
2018-06-09T08:35:53.080Z,25.50
2018-06-09T08:38:21.670Z,25.80
2018-06-09T08:40:50.324Z,25.60
2018-06-09T08:43:19.022Z,26.10
2018-06-09T08:45:47.751Z,25.90
2018-06-09T08:48:16.476Z,25.50
2018-06-09T08:50:45.423Z,25.40
2018-06-09T08:53:14.379Z,25.40
2018-06-09T08:55:43.334Z,25.40
2018-06-09T08:58:12.453Z,25.30
2018-06-09T09:00:41.329Z,25.30
2018-06-09T09:03:10.234Z,25.20
2018-06-09T09:05:39.172Z,25.40
2018-06-09T09:08:08.087Z,25.40
2018-06-09T09:10:36.975Z,25.30
2018-06-09T09:13:05.629Z,25.00
2018-06-09T09:15:34.307Z,24.60
2018-06-09T09:18:02.908Z,24.30
2018-06-09T09:20:31.705Z,24.10
2018-06-09T09:23:00.573Z,24.20
2018-06-09T09:25:29.497Z,25.30
2018-06-09T09:27:58.369Z,25.50
2018-06-09T09:30:27.107Z,25.60
2018-06-09T09:32:55.776Z,25.50
2018-06-09T09:35:24.383Z,25.40
2018-06-09T09:37:52.971Z,25.30
2018-06-09T09:40:21.639Z,25.20
2018-06-09T09:42:50.223Z,25.20
2018-06-09T09:45:18.856Z,25.40
2018-06-09T09:47:47.454Z,25.50
2018-06-09T09:50:16.213Z,25.40
2018-06-09T09:52:45.099Z,25.20
2018-06-09T09:55:14.012Z,25.40
2018-06-09T09:58:09.216Z,25.30
2018-06-09T10:00:38.861Z,25.70
2018-06-09T10:03:08.571Z,26.20
2018-06-09T10:05:37.206Z,26.50
2018-06-09T10:08:05.954Z,26.60
2018-06-09T10:10:34.673Z,26.40
2018-06-09T10:13:03.837Z,26.00
2018-06-09T10:15:32.536Z,26.20
2018-06-09T10:18:01.269Z,25.90
2018-06-09T10:20:30.103Z,25.70
2018-06-09T10:22:58.831Z,25.90
2018-06-09T10:25:27.706Z,26.00
2018-06-09T10:27:56.690Z,26.50
2018-06-09T10:30:25.551Z,26.60
2018-06-09T10:35:22.716Z,26.90
2018-06-09T10:37:51.348Z,26.80
2018-06-09T10:40:19.979Z,26.60
2018-06-09T10:42:48.706Z,26.40
2018-06-09T10:45:17.336Z,26.00
2018-06-09T10:47:45.895Z,25.80
2018-06-09T10:50:14.564Z,25.80
2018-06-09T10:52:43.138Z,25.60
2018-06-09T10:55:12.004Z,25.70
2018-06-09T10:57:40.889Z,25.60
2018-06-09T11:00:09.784Z,25.80
2018-06-09T11:02:38.791Z,25.80
2018-06-09T11:05:07.921Z,25.90
2018-06-09T11:07:36.979Z,26.00
2018-06-09T11:10:05.899Z,26.00
2018-06-09T11:12:34.801Z,26.30
2018-06-09T11:15:03.728Z,27.30
2018-06-09T11:17:32.583Z,28.50
2018-06-09T11:20:01.440Z,29.30
2018-06-09T11:22:30.410Z,29.70
2018-06-09T11:24:59.227Z,29.10
2018-06-09T11:27:28.488Z,28.50
2018-06-09T11:29:57.384Z,28.10
2018-06-09T11:32:26.253Z,28.00
2018-06-09T11:34:54.919Z,28.20
2018-06-09T11:37:23.544Z,28.50
2018-06-09T11:39:52.151Z,29.30
2018-06-09T11:42:20.866Z,29.00
2018-06-09T11:44:49.505Z,29.10
2018-06-09T11:47:18.127Z,29.00
2018-06-09T11:49:46.929Z,28.80
2018-06-09T11:52:15.561Z,28.50
2018-06-09T11:54:44.119Z,28.10
2018-06-09T11:57:12.776Z,28.00
2018-06-09T11:59:41.409Z,27.60
2018-06-09T12:02:10.914Z,27.50
2018-06-09T12:04:43.085Z,27.40
2018-06-09T12:07:12.178Z,27.60
2018-06-09T12:09:41.166Z,27.30
2018-06-09T12:12:10.057Z,27.20
2018-06-09T12:14:39.478Z,27.30
2018-06-09T12:17:08.219Z,27.20
2018-06-09T12:19:37.835Z,27.10
2018-06-09T12:22:06.716Z,27.00
2018-06-09T12:24:35.564Z,26.70
2018-06-09T12:27:05.184Z,26.80
2018-06-09T12:29:34.699Z,27.00
2018-06-09T12:32:04.191Z,26.90
2018-06-09T12:34:33.104Z,26.80
2018-06-09T12:37:01.836Z,26.70
2018-06-09T12:39:30.509Z,26.60
2018-06-09T12:41:59.324Z,26.70
2018-06-09T12:44:28.093Z,27.10
2018-06-09T12:46:56.797Z,27.70
2018-06-09T12:49:25.555Z,27.90
2018-06-09T12:51:54.446Z,28.20
2018-06-09T12:54:23.130Z,28.30
2018-06-09T12:56:52.593Z,29.10
2018-06-09T12:59:21.218Z,29.10
2018-06-09T13:01:49.951Z,29.30
2018-06-09T13:04:18.631Z,29.30
2018-06-09T13:06:48.141Z,28.80
2018-06-09T13:09:16.802Z,28.00
2018-06-09T13:11:45.639Z,27.80
2018-06-09T13:14:17.516Z,27.80
2018-06-09T13:16:46.236Z,28.70
2018-06-09T13:19:15.246Z,29.00
2018-06-09T13:21:44.231Z,28.70
2018-06-09T13:24:13.144Z,28.10
2018-06-09T13:26:42.135Z,27.50
2018-06-09T13:29:10.819Z,27.40
2018-06-09T13:31:39.762Z,27.10
2018-06-09T13:34:08.376Z,27.00
2018-06-09T13:36:37.875Z,27.80
2018-06-09T13:39:07.830Z,28.80
2018-06-09T13:41:36.599Z,29.60
2018-06-09T13:44:05.343Z,29.90
2018-06-09T13:46:34.211Z,30.10
2018-06-09T13:49:03.103Z,30.20
2018-06-09T13:51:32.044Z,30.50
2018-06-09T13:54:00.998Z,29.80
2018-06-09T13:56:29.648Z,29.60
2018-06-09T13:58:58.251Z,28.80
2018-06-09T14:01:26.898Z,28.20
2018-06-09T14:03:55.526Z,27.40
2018-06-09T14:06:24.750Z,27.10
2018-06-09T14:08:53.701Z,26.90
2018-06-09T14:11:22.323Z,27.40
2018-06-09T14:13:50.985Z,28.20
2018-06-09T14:16:19.636Z,29.00
2018-06-09T14:18:48.278Z,29.50
2018-06-09T14:21:16.883Z,29.40
2018-06-09T14:23:45.553Z,29.20
2018-06-09T14:26:14.370Z,29.10
2018-06-09T14:28:43.263Z,29.00
2018-06-09T14:31:12.206Z,29.40
2018-06-09T14:33:41.125Z,29.90
2018-06-09T14:36:09.883Z,30.30
2018-06-09T14:41:06.966Z,30.50
2018-06-09T14:43:35.559Z,30.40
2018-06-09T14:46:04.198Z,30.30
2018-06-09T14:48:33.098Z,30.10
2018-06-09T14:51:02.024Z,29.30
2018-06-09T14:53:30.958Z,29.40
2018-06-09T14:55:59.638Z,29.60
2018-06-09T14:58:28.226Z,30.00
2018-06-09T15:00:56.896Z,29.80
2018-06-09T15:03:25.543Z,29.80
2018-06-09T15:05:54.160Z,30.00
2018-06-09T15:08:22.761Z,29.60
2018-06-09T15:10:51.368Z,29.50
2018-06-09T15:13:19.990Z,29.40
2018-06-09T15:15:48.678Z,29.40
2018-06-09T15:18:17.309Z,29.50
2018-06-09T15:20:45.946Z,29.60
2018-06-09T15:23:14.559Z,29.40
2018-06-09T15:25:43.258Z,29.60
2018-06-09T15:28:16.228Z,29.50
2018-06-09T15:30:47.670Z,29.40
2018-06-09T15:33:16.331Z,29.20
2018-06-09T15:35:46.006Z,29.20
2018-06-09T15:38:14.916Z,29.30
2018-06-09T15:40:43.896Z,29.40
2018-06-09T15:43:13.188Z,29.40
2018-06-09T15:45:41.961Z,29.70
2018-06-09T15:48:10.620Z,29.90
2018-06-09T15:50:39.210Z,30.00
2018-06-09T15:53:07.883Z,30.00
2018-06-09T15:55:36.599Z,29.50
2018-06-09T15:58:05.639Z,29.00
2018-06-09T16:00:35.118Z,29.10
2018-06-09T16:03:04.175Z,28.50
2018-06-09T16:05:33.559Z,28.20
2018-06-09T16:08:02.475Z,27.70
2018-06-09T16:10:31.459Z,27.80
2018-06-09T16:13:01.332Z,28.00
2018-06-09T16:15:30.264Z,27.90
2018-06-09T16:17:59.211Z,27.80
2018-06-09T16:20:28.634Z,28.20
2018-06-09T16:22:57.704Z,28.20
2018-06-09T16:25:27.575Z,28.10
2018-06-09T16:27:56.484Z,28.00
2018-06-09T16:30:25.364Z,28.10
2018-06-09T16:32:54.268Z,28.10
2018-06-09T16:35:23.150Z,27.90
2018-06-09T16:37:52.094Z,27.70
2018-06-09T16:40:20.719Z,27.70
2018-06-09T16:42:49.344Z,27.90
2018-06-09T16:45:17.939Z,27.60
2018-06-09T16:47:46.561Z,27.30
2018-06-09T16:50:15.178Z,27.30
2018-06-09T16:52:43.851Z,27.40
2018-06-09T16:57:40.871Z,27.20
2018-06-09T17:00:09.534Z,26.80
2018-06-09T17:02:38.186Z,27.10
2018-06-09T17:05:06.960Z,27.00
2018-06-09T17:07:36.253Z,26.80
2018-06-09T17:10:04.988Z,26.50
2018-06-09T17:12:33.741Z,26.10
2018-06-09T17:15:02.419Z,25.70
2018-06-09T17:17:31.038Z,25.30
2018-06-09T17:19:59.649Z,24.90
2018-06-09T17:22:28.306Z,24.60
2018-06-09T17:24:56.895Z,24.40
2018-06-09T17:27:25.576Z,24.20
2018-06-09T17:29:54.211Z,24.10
2018-06-09T17:32:23.097Z,24.00
2018-06-09T17:34:51.984Z,23.80
2018-06-09T17:37:21.761Z,23.80
2018-06-09T17:39:50.703Z,23.70
2018-06-09T17:42:19.591Z,23.60
2018-06-09T17:44:48.449Z,23.50
2018-06-09T17:47:17.293Z,23.40
2018-06-09T17:49:46.303Z,23.40
2018-06-09T17:52:15.221Z,23.40
2018-06-09T17:54:44.084Z,23.30
2018-06-09T17:57:12.991Z,23.30
2018-06-09T17:59:41.841Z,23.10
2018-06-09T18:02:11.169Z,23.10
2018-06-09T18:04:39.844Z,23.20
2018-06-09T18:07:08.499Z,23.00
2018-06-09T18:09:37.801Z,23.00
2018-06-09T18:12:06.492Z,22.80
2018-06-09T18:14:35.220Z,22.70
2018-06-09T18:17:03.915Z,22.70
2018-06-09T18:19:32.660Z,22.60
2018-06-09T18:22:01.207Z,22.40
2018-06-09T18:24:29.898Z,22.30
2018-06-09T18:26:58.507Z,22.20
2018-06-09T18:29:27.160Z,22.00
2018-06-09T18:31:55.809Z,21.90
2018-06-09T18:34:24.451Z,21.70
2018-06-09T18:36:53.127Z,21.60
2018-06-09T18:39:21.804Z,21.50
2018-06-09T18:41:50.507Z,21.40
2018-06-09T18:44:19.548Z,21.50
2018-06-09T18:46:48.246Z,21.50
2018-06-09T18:49:16.863Z,21.50
2018-06-09T18:51:45.506Z,21.50
2018-06-09T18:54:14.144Z,21.40
2018-06-09T18:56:42.819Z,21.30
2018-06-09T18:59:11.494Z,21.30
2018-06-09T19:01:40.799Z,21.30
2018-06-09T19:04:10.201Z,21.20
2018-06-09T19:06:39.779Z,20.90
2018-06-09T19:09:09.264Z,20.70
2018-06-09T19:11:38.743Z,20.60
2018-06-09T19:14:07.721Z,20.60
2018-06-09T19:16:36.719Z,20.50
2018-06-09T19:19:05.739Z,20.40
2018-06-09T19:21:34.674Z,20.30
2018-06-09T19:24:03.403Z,20.30
2018-06-09T19:26:32.093Z,20.30
2018-06-09T19:29:00.711Z,20.30
2018-06-09T19:31:29.589Z,20.40
2018-06-09T19:33:58.724Z,20.40
2018-06-09T19:36:27.688Z,20.40
2018-06-09T19:38:56.602Z,20.30
2018-06-09T19:41:25.412Z,20.30
2018-06-09T19:43:54.156Z,20.20
2018-06-09T19:46:22.837Z,20.20
2018-06-09T19:48:51.500Z,20.10
2018-06-09T19:51:20.157Z,20.10
2018-06-09T19:53:48.734Z,20.10
2018-06-09T19:56:17.373Z,20.00
2018-06-09T19:58:46.050Z,19.80
2018-06-09T20:01:14.784Z,19.80
2018-06-09T20:03:43.826Z,19.60
2018-06-09T20:06:12.717Z,19.50
2018-06-09T20:08:41.656Z,19.40
2018-06-09T20:11:10.561Z,19.20
2018-06-09T20:13:39.491Z,19.10
2018-06-09T20:16:08.449Z,19.10
2018-06-09T20:18:37.391Z,19.00
2018-06-09T20:21:06.279Z,18.90
2018-06-09T20:23:35.386Z,18.80
2018-06-09T20:26:06.510Z,18.70
2018-06-09T20:28:35.529Z,18.70
2018-06-09T20:31:04.464Z,18.80
2018-06-09T20:33:33.151Z,18.80
2018-06-09T20:36:01.843Z,18.90
2018-06-09T20:38:44.566Z,18.80
2018-06-09T20:41:13.305Z,18.60
2018-06-09T20:43:43.653Z,18.50
2018-06-09T20:46:12.684Z,18.60
2018-06-09T20:48:41.676Z,18.60
2018-06-09T20:51:10.707Z,18.60
2018-06-09T20:53:39.698Z,18.60
2018-06-09T20:56:08.700Z,18.50
2018-06-09T20:58:38.572Z,18.50
2018-06-09T21:01:07.641Z,18.40
2018-06-09T21:03:36.836Z,18.30
2018-06-09T21:06:07.039Z,18.10
2018-06-09T21:08:36.000Z,18.10
2018-06-09T21:11:04.942Z,18.00
2018-06-09T21:13:33.914Z,17.90
2018-06-09T21:16:04.446Z,17.90
2018-06-09T21:18:33.479Z,18.00
2018-06-09T21:21:02.563Z,17.90
2018-06-09T21:23:31.629Z,17.80
2018-06-09T21:26:01.651Z,17.80
2018-06-09T21:28:35.164Z,18.10
2018-06-09T21:31:09.699Z,18.30
2018-06-09T21:34:00.958Z,18.20
2018-06-09T21:36:37.337Z,17.80
2018-06-09T21:41:51.911Z,17.20
2018-06-09T21:44:26.328Z,17.00
2018-06-09T21:46:55.208Z,16.90
2018-06-09T21:49:24.139Z,16.80
2018-06-09T21:51:53.073Z,16.80
2018-06-09T21:54:22.217Z,16.70
2018-06-09T21:56:51.109Z,16.70
2018-06-09T21:59:20.014Z,16.70
2018-06-09T22:01:48.969Z,16.60
2018-06-09T22:04:17.893Z,16.60
2018-06-09T22:06:46.779Z,16.60
2018-06-09T22:09:15.496Z,16.60
2018-06-09T22:11:44.164Z,16.60
2018-06-09T22:14:12.996Z,16.60
2018-06-09T22:16:41.652Z,16.60
2018-06-09T22:19:10.591Z,16.60
2018-06-09T22:24:08.100Z,16.50
2018-06-09T22:26:36.853Z,16.30
2018-06-09T22:29:05.666Z,16.20
2018-06-09T22:31:34.355Z,16.30
2018-06-09T22:34:03.045Z,16.20
2018-06-09T22:36:31.655Z,16.10
2018-06-09T22:39:00.236Z,16.00
2018-06-09T22:41:28.833Z,15.90
2018-06-09T22:43:57.416Z,15.80
2018-06-09T22:46:26.126Z,15.80
2018-06-09T22:48:55.060Z,15.70
2018-06-09T22:51:24.003Z,15.80
2018-06-09T22:53:52.946Z,15.70
2018-06-09T22:56:21.779Z,15.70
2018-06-09T22:58:51.492Z,15.80
2018-06-09T23:01:20.183Z,15.90
2018-06-09T23:03:48.908Z,16.00
2018-06-09T23:06:19.254Z,15.80
2018-06-09T23:08:49.434Z,15.70
2018-06-09T23:11:18.096Z,15.60
2018-06-09T23:13:46.756Z,15.50
2018-06-09T23:16:16.157Z,15.40
2018-06-09T23:18:46.699Z,15.30
2018-06-09T23:21:16.907Z,15.30
2018-06-09T23:23:45.806Z,15.20
2018-06-09T23:26:16.588Z,15.10
2018-06-09T23:28:45.959Z,15.00
2018-06-09T23:31:17.431Z,14.90
2018-06-09T23:33:47.121Z,15.00
2018-06-09T23:36:16.097Z,15.00
2018-06-09T23:38:45.656Z,15.00
2018-06-09T23:41:15.944Z,15.00
2018-06-09T23:43:44.917Z,15.00
2018-06-09T23:46:13.818Z,14.80
2018-06-09T23:48:42.631Z,14.80
2018-06-09T23:51:11.232Z,14.80
2018-06-09T23:53:39.818Z,14.80
2018-06-09T23:56:08.493Z,14.70
2018-06-09T23:58:37.193Z,14.70
